Time;durP1;ratioP1;P1;durP2;ratioP2;P2;SDS_P1;SDS_P2;PMS_P1;PMS_P2;Temp;Humidity;BMP_temperature;BMP_pressure;BME280_temperature;BME280_humidity;BME280_pressure;Samples;Min_cycle;Max_cycle;Signal;HPM_P1;HPM_P2
2022/06/23 00:02:02;;;;;;;14.90;8.77;;;17.30;99.90;;;;;;5039961;28;20592;-83
2022/06/23 00:04:42;;;;;;;12.23;7.90;;;17.30;99.90;;;;;;5038722;28;20240;-83
2022/06/23 00:07:18;;;;;;;16.00;9.40;;;17.20;99.90;;;;;;5035752;28;20672;-84
2022/06/23 00:09:45;;;;;;;14.03;9.07;;;17.20;99.90;;;;;;5040263;28;20209;-84
2022/06/23 00:12:18;;;;;;;13.30;9.63;;;17.20;99.90;;;;;;5039517;28;20235;-85
2022/06/23 00:14:51;;;;;;;14.47;9.30;;;17.20;99.90;;;;;;5037868;28;20232;-84
2022/06/23 00:17:37;;;;;;;14.17;9.83;;;17.10;99.90;;;;;;5038229;28;20212;-83
2022/06/23 00:20:32;;;;;;;15.20;8.83;;;17.00;99.90;;;;;;5037909;28;20221;-83
2022/06/23 00:23:05;;;;;;;11.40;8.23;;;16.90;99.90;;;;;;5029710;28;20294;-83
2022/06/23 00:25:40;;;;;;;16.53;8.83;;;16.90;99.90;;;;;;5040385;28;20250;-84
2022/06/23 00:28:14;;;;;;;12.97;8.53;;;16.90;99.90;;;;;;5044291;28;20276;-85
2022/06/23 00:30:42;;;;;;;16.40;10.17;;;16.80;99.90;;;;;;5040649;28;20226;-82
2022/06/23 00:33:21;;;;;;;15.53;9.90;;;16.80;99.90;;;;;;5039233;28;20298;-85
2022/06/23 00:35:50;;;;;;;16.00;11.70;;;16.80;99.90;;;;;;5074260;28;20350;-84
2022/06/23 00:38:24;;;;;;;16.00;10.87;;;16.70;99.90;;;;;;5040949;28;20263;-83
2022/06/23 00:40:52;;;;;;;14.07;10.67;;;16.70;99.90;;;;;;5041415;28;20319;-84
2022/06/23 00:43:20;;;;;;;17.53;10.80;;;16.60;99.90;;;;;;5041756;28;20269;-84
2022/06/23 00:45:54;;;;;;;17.60;10.83;;;16.60;99.90;;;;;;5042982;28;20213;-84
2022/06/23 00:48:30;;;;;;;12.77;9.10;;;16.60;99.90;;;;;;5040083;28;20252;-84
2022/06/23 00:51:17;;;;;;;14.37;10.60;;;16.50;99.90;;;;;;5042030;28;20255;-86
2022/06/23 00:53:53;;;;;;;19.53;11.43;;;16.50;99.90;;;;;;5040209;28;20210;-84
2022/06/23 00:56:39;;;;;;;13.10;10.43;;;16.40;99.90;;;;;;5043710;28;20380;-83
2022/06/23 00:59:11;;;;;;;16.07;10.30;;;16.40;99.90;;;;;;5039946;28;20744;-83
2022/06/23 01:01:52;;;;;;;16.73;11.37;;;16.30;99.90;;;;;;5043923;28;20831;-85
2022/06/23 01:04:21;;;;;;;14.80;11.27;;;16.40;99.90;;;;;;5039009;28;20233;-84
2022/06/23 01:06:53;;;;;;;11.87;9.33;;;16.30;99.90;;;;;;5033159;28;20221;-85
2022/06/23 01:09:31;;;;;;;16.97;10.40;;;16.30;99.90;;;;;;5040675;28;20209;-84
2022/06/23 01:12:02;;;;;;;14.47;10.97;;;16.30;99.90;;;;;;5040083;28;20644;-79
2022/06/23 01:14:37;;;;;;;16.47;12.07;;;16.20;99.90;;;;;;5043879;28;20205;-84
2022/06/23 01:17:14;;;;;;;18.77;10.93;;;16.20;99.90;;;;;;5042531;28;20278;-84
2022/06/23 01:20:02;;;;;;;17.23;11.00;;;16.20;99.90;;;;;;5041295;28;20217;-83
2022/06/23 01:22:51;;;;;;;16.73;10.40;;;16.10;99.90;;;;;;5041715;28;20214;-85
2022/06/23 01:25:53;;;;;;;19.63;11.87;;;16.10;99.90;;;;;;5033427;28;20213;-84
2022/06/23 01:28:28;;;;;;;21.40;12.53;;;16.10;99.90;;;;;;5036306;28;20210;-82
2022/06/23 01:31:12;;;;;;;16.20;11.17;;;16.00;99.90;;;;;;5030614;28;20217;-85
2022/06/23 01:33:42;;;;;;;19.10;12.20;;;16.00;99.90;;;;;;5031902;28;20225;-85
2022/06/23 01:36:36;;;;;;;20.17;13.23;;;16.00;99.90;;;;;;5035081;28;20210;-86
2022/06/23 01:39:24;;;;;;;19.33;12.90;;;15.90;99.90;;;;;;5045395;28;20202;-83
2022/06/23 01:42:00;;;;;;;17.70;12.30;;;15.90;99.90;;;;;;5040861;28;20206;-84
2022/06/23 01:44:46;;;;;;;20.53;12.37;;;15.80;99.90;;;;;;5043014;28;20209;-84
2022/06/23 01:47:28;;;;;;;16.23;12.97;;;15.70;99.90;;;;;;5042707;28;20207;-83
2022/06/23 01:50:13;;;;;;;14.83;10.20;;;15.70;99.90;;;;;;5042754;28;20226;-84
2022/06/23 01:52:42;;;;;;;18.77;11.43;;;15.70;99.90;;;;;;5041799;28;20566;-83
2022/06/23 01:55:44;;;;;;;20.40;12.70;;;15.60;99.90;;;;;;5030610;28;20214;-85
2022/06/23 01:58:16;;;;;;;18.07;12.47;;;15.70;99.90;;;;;;5030336;28;20343;-85
2022/06/23 02:00:46;;;;;;;21.47;12.87;;;15.60;99.90;;;;;;5032034;28;20221;-84
2022/06/23 02:03:24;;;;;;;19.67;13.00;;;15.60;99.90;;;;;;5037995;28;20651;-84
2022/06/23 02:05:53;;;;;;;19.00;13.30;;;15.60;99.90;;;;;;5039767;28;20695;-83
2022/06/23 02:08:41;;;;;;;21.13;14.00;;;15.50;99.90;;;;;;5042856;28;20666;-85
2022/06/23 02:11:35;;;;;;;21.10;13.70;;;15.50;99.90;;;;;;5041985;28;20990;-84
2022/06/23 02:14:37;;;;;;;19.90;14.10;;;15.50;99.90;;;;;;5041768;28;20209;-83
2022/06/23 02:17:30;;;;;;;25.23;14.27;;;15.40;99.90;;;;;;5039295;28;20264;-84
2022/06/23 02:20:14;;;;;;;21.23;14.30;;;15.40;99.90;;;;;;5038906;28;20221;-84
2022/06/23 02:22:45;;;;;;;21.70;12.30;;;15.40;99.90;;;;;;5040478;28;20204;-84
2022/06/23 02:25:27;;;;;;;24.17;13.30;;;15.40;99.90;;;;;;5036079;28;20601;-84
2022/06/23 02:28:16;;;;;;;21.30;13.43;;;15.30;99.90;;;;;;5038568;28;20260;-84
2022/06/23 02:30:53;;;;;;;17.93;12.50;;;15.30;99.90;;;;;;5039276;28;20248;-85
2022/06/23 02:33:42;;;;;;;20.43;13.37;;;15.20;99.90;;;;;;5042086;28;20826;-84
2022/06/23 02:36:28;;;;;;;17.40;12.23;;;15.20;99.90;;;;;;5039292;28;20259;-83
2022/06/23 02:39:00;;;;;;;21.27;14.80;;;15.10;99.90;;;;;;5040815;28;20591;-85
2022/06/23 02:41:50;;;;;;;22.33;14.63;;;15.10;99.90;;;;;;5037716;28;20214;-83
2022/06/23 02:44:26;;;;;;;22.40;14.07;;;15.10;99.90;;;;;;5041920;28;20210;-85
2022/06/23 02:47:20;;;;;;;22.80;14.83;;;15.10;99.90;;;;;;5035078;28;20713;-83
2022/06/23 02:50:12;;;;;;;23.93;15.97;;;15.10;99.90;;;;;;5037699;28;20229;-82
2022/06/23 02:53:13;;;;;;;21.17;15.00;;;15.10;99.90;;;;;;5038291;28;20236;-83
2022/06/23 02:55:46;;;;;;;21.20;13.70;;;15.00;99.90;;;;;;5042381;28;20245;-84
2022/06/23 02:58:26;;;;;;;25.20;15.33;;;15.10;99.90;;;;;;5042063;28;20209;-84
2022/06/23 03:01:00;;;;;;;23.47;15.10;;;15.00;99.90;;;;;;5041378;28;20219;-81
2022/06/23 03:03:35;;;;;;;23.40;14.80;;;15.10;99.90;;;;;;5042155;28;20704;-85
2022/06/23 03:06:18;;;;;;;24.37;15.53;;;15.00;99.90;;;;;;5037858;28;20220;-84
2022/06/23 03:08:56;;;;;;;23.57;15.53;;;15.00;99.90;;;;;;5039036;28;20209;-83
2022/06/23 03:14:30;;;;;;;30.67;15.73;;;15.00;99.90;;;;;;4999764;28;20361;-84
2022/06/23 03:17:04;;;;;;;21.73;15.20;;;15.00;99.90;;;;;;5036533;28;20215;-84
2022/06/23 03:19:42;;;;;;;25.10;16.00;;;15.00;99.90;;;;;;5029539;28;20218;-84
2022/06/23 03:22:20;;;;;;;22.60;15.43;;;15.00;99.90;;;;;;5028964;28;20601;-83
2022/06/23 03:25:12;;;;;;;28.53;15.63;;;15.00;99.90;;;;;;5029505;28;20521;-84
2022/06/23 03:27:46;;;;;;;20.00;14.90;;;14.90;99.90;;;;;;5029129;28;20220;-85
2022/06/23 03:30:43;;;;;;;22.73;15.43;;;14.90;99.90;;;;;;5032007;28;20226;-85
2022/06/23 03:33:37;;;;;;;24.33;16.27;;;14.90;99.90;;;;;;5037103;28;20232;-82
2022/06/23 03:36:32;;;;;;;23.87;17.20;;;14.90;99.90;;;;;;5041153;28;20730;-85
2022/06/23 03:42:12;;;;;;;25.50;15.83;;;14.90;99.90;;;;;;5041483;28;20212;-83
2022/06/23 03:44:49;;;;;;;25.33;16.00;;;14.80;99.90;;;;;;5035417;28;20248;-80
2022/06/23 03:47:24;;;;;;;22.03;14.30;;;14.90;99.90;;;;;;5039839;28;20206;-83
2022/06/23 03:50:25;;;;;;;26.73;16.77;;;14.90;99.90;;;;;;5043430;28;20286;-82
2022/06/23 03:53:00;;;;;;;25.57;16.50;;;14.90;99.90;;;;;;5030455;28;20236;-85
2022/06/23 03:55:36;;;;;;;21.40;15.90;;;14.90;99.90;;;;;;5047936;28;20208;-83
2022/06/23 03:58:16;;;;;;;21.07;14.77;;;14.90;99.90;;;;;;5051107;28;20218;-85
2022/06/23 04:01:11;;;;;;;26.47;15.90;;;15.00;99.90;;;;;;5047604;28;20210;-82
2022/06/23 04:03:57;;;;;;;25.53;15.97;;;15.00;99.90;;;;;;5044392;28;20301;-84
2022/06/23 04:06:41;;;;;;;19.20;14.57;;;15.00;99.90;;;;;;5047084;28;20224;-84
2022/06/23 04:09:27;;;;;;;23.53;15.87;;;15.00;99.90;;;;;;5046631;28;20281;-84
2022/06/23 04:12:08;;;;;;;23.93;16.20;;;15.10;99.90;;;;;;5038275;28;20577;-84
2022/06/23 04:14:40;;;;;;;27.80;17.13;;;15.10;99.90;;;;;;5039547;28;20226;-85
2022/06/23 04:17:25;;;;;;;21.17;14.57;;;15.10;99.90;;;;;;5040217;28;20259;-84
2022/06/23 04:20:13;;;;;;;19.03;13.57;;;15.20;99.90;;;;;;5039122;28;20693;-84
2022/06/23 04:22:53;;;;;;;29.77;15.60;;;15.10;99.90;;;;;;5041807;28;20213;-82
2022/06/23 04:25:44;;;;;;;23.63;15.03;;;15.20;99.90;;;;;;5038941;28;20228;-81
2022/06/23 04:28:45;;;;;;;18.97;15.07;;;15.20;99.90;;;;;;5036859;28;20252;-84
2022/06/23 04:31:40;;;;;;;22.43;15.03;;;15.20;99.90;;;;;;5039935;28;20304;-83
2022/06/23 04:34:28;;;;;;;19.90;14.30;;;15.20;99.90;;;;;;5037969;28;20258;-84
2022/06/23 04:36:55;;;;;;;20.60;14.10;;;15.30;99.90;;;;;;5043903;28;20306;-83
2022/06/23 04:39:30;;;;;;;21.37;14.07;;;15.30;99.90;;;;;;5040091;28;20201;-82
2022/06/23 04:42:19;;;;;;;20.40;15.73;;;15.40;99.90;;;;;;5037347;28;20199;-83
2022/06/23 04:44:49;;;;;;;18.23;14.37;;;15.40;99.90;;;;;;5037420;28;20213;-82
2022/06/23 04:47:27;;;;;;;18.37;15.27;;;15.40;99.90;;;;;;5036091;28;20210;-83
2022/06/23 04:50:19;;;;;;;21.33;15.13;;;15.50;99.90;;;;;;5036916;28;20225;-84
2022/06/23 04:52:52;;;;;;;22.93;14.57;;;15.50;99.90;;;;;;5034614;28;20300;-84
2022/06/23 04:55:26;;;;;;;24.90;15.53;;;15.50;99.90;;;;;;5037427;28;20213;-84
2022/06/23 04:58:23;;;;;;;24.67;14.33;;;15.60;99.90;;;;;;5042388;28;20674;-84
2022/06/23 05:00:52;;;;;;;21.80;13.93;;;15.60;99.90;;;;;;5053594;28;20202;-84
2022/06/23 05:03:44;;;;;;;20.27;13.33;;;15.70;99.90;;;;;;5050797;28;20218;-82
2022/06/23 05:06:44;;;;;;;18.33;13.63;;;15.70;99.90;;;;;;5054297;28;20209;-83
2022/06/23 05:09:22;;;;;;;24.20;14.87;;;15.80;99.90;;;;;;5057404;28;20209;-84
2022/06/23 05:12:02;;;;;;;22.67;15.47;;;15.90;99.90;;;;;;5059301;28;20212;-85
2022/06/23 05:14:53;;;;;;;17.07;12.50;;;15.90;99.90;;;;;;5046614;28;20201;-83
2022/06/23 05:17:29;;;;;;;17.57;13.23;;;16.00;99.90;;;;;;5044174;28;20209;-82
2022/06/23 05:19:59;;;;;;;16.57;12.30;;;16.00;99.90;;;;;;5056260;28;20221;-82
2022/06/23 05:22:26;;;;;;;24.43;14.00;;;16.10;99.90;;;;;;5041357;28;20202;-83
2022/06/23 05:24:56;;;;;;;20.83;13.93;;;16.20;99.90;;;;;;5041848;28;20213;-82
2022/06/23 05:27:28;;;;;;;16.33;11.90;;;16.50;99.90;;;;;;5046044;28;20202;-82
2022/06/23 05:30:06;;;;;;;16.38;11.45;;;17.50;99.90;;;;;;5046246;28;20206;-82
2022/06/23 05:32:44;;;;;;;14.70;10.55;;;18.70;99.90;;;;;;5044270;28;20228;-82
2022/06/23 05:35:25;;;;;;;15.13;9.38;;;19.90;99.90;;;;;;5040452;28;20225;-82
2022/06/23 05:38:02;;;;;;;10.35;9.15;;;21.40;99.90;;;;;;5038355;28;20665;-82
2022/06/23 05:40:37;;;;;;;9.63;8.00;;;22.60;99.90;;;;;;5038154;28;20266;-83
2022/06/23 05:43:05;;;;;;;10.98;8.85;;;23.70;99.90;;;;;;5042842;28;20220;-81
2022/06/23 05:45:40;;;;;;;12.55;8.48;;;24.70;99.90;;;;;;5038138;28;20205;-82
2022/06/23 05:48:19;;;;;;;11.02;7.95;;;25.40;99.90;;;;;;5040610;28;20267;-81
2022/06/23 05:51:09;;;;;;;9.40;7.88;;;26.10;99.90;;;;;;5038924;28;20209;-82
2022/06/23 05:53:49;;;;;;;10.70;7.47;;;26.70;99.90;;;;;;5033208;28;20233;-81
2022/06/23 05:56:35;;;;;;;10.40;8.23;;;27.30;99.90;;;;;;5041666;28;20214;-83
2022/06/23 05:59:15;;;;;;;10.52;8.48;;;27.90;99.90;;;;;;5040474;28;20209;-82
2022/06/23 06:01:53;;;;;;;9.57;7.43;;;28.30;99.90;;;;;;5040051;28;20205;-83
2022/06/23 06:04:25;;;;;;;10.40;7.63;;;28.60;99.90;;;;;;5041427;28;20237;-82
2022/06/23 06:06:52;;;;;;;11.77;8.48;;;28.70;99.90;;;;;;5035139;28;20256;-82
2022/06/23 06:09:35;;;;;;;10.40;7.82;;;28.70;99.90;;;;;;5040285;28;20208;-83
2022/06/23 06:12:35;;;;;;;8.05;7.20;;;29.00;99.90;;;;;;5029304;28;20217;-82
2022/06/23 06:15:17;;;;;;;11.02;8.02;;;29.50;99.90;;;;;;5028931;28;20217;-81
2022/06/23 06:17:45;;;;;;;9.88;7.72;;;29.80;99.30;;;;;;5029359;28;20213;-82
2022/06/23 06:20:13;;;;;;;10.43;7.47;;;29.90;99.20;;;;;;5033387;28;20236;-83
2022/06/23 06:22:50;;;;;;;11.13;7.63;;;30.00;98.50;;;;;;5039131;28;20694;-82
2022/06/23 06:25:28;;;;;;;11.27;7.63;;;30.40;97.80;;;;;;5040671;28;20213;-82
2022/06/23 06:27:58;;;;;;;13.93;7.35;;;30.50;98.00;;;;;;5039767;28;20209;-82
2022/06/23 06:30:29;;;;;;;9.27;7.57;;;;;;;;;;5037695;28;20210;-82
2022/06/23 06:32:57;;;;;;;11.00;7.10;;;31.30;95.90;;;;;;5037415;28;20287;-81
2022/06/23 06:35:27;;;;;;;9.57;6.93;;;31.80;95.00;;;;;;5039635;28;20640;-82
2022/06/23 06:38:07;;;;;;;11.52;7.57;;;32.10;93.90;;;;;;5038312;28;20685;-82
2022/06/23 06:40:36;;;;;;;9.30;6.80;;;32.30;92.90;;;;;;5041103;28;20622;-81
2022/06/23 06:43:08;;;;;;;8.98;6.20;;;32.10;92.50;;;;;;5039805;28;20291;-81
2022/06/23 06:45:37;;;;;;;6.72;5.10;;;32.00;92.20;;;;;;5041755;28;20205;-82
2022/06/23 06:48:11;;;;;;;7.90;5.45;;;32.20;91.30;;;;;;5032318;28;20217;-82
2022/06/23 06:50:49;;;;;;;9.35;5.78;;;32.20;90.00;;;;;;5029269;28;20369;-81
2022/06/23 06:53:30;;;;;;;9.70;5.38;;;32.00;88.80;;;;;;5037424;28;20263;-81
2022/06/23 06:56:05;;;;;;;7.82;4.72;;;31.90;87.70;;;;;;5037350;28;20580;-80
2022/06/23 06:58:41;;;;;;;6.38;5.10;;;32.10;87.30;;;;;;5035914;28;20602;-80
2022/06/23 07:01:35;;;;;;;6.82;5.43;;;32.30;86.20;;;;;;5040587;28;20858;-82
2022/06/23 07:04:03;;;;;;;6.55;5.20;;;32.50;84.10;;;;;;5036429;28;20256;-81
2022/06/23 07:06:53;;;;;;;5.93;4.68;;;32.50;84.30;;;;;;5036203;28;20271;-81
2022/06/23 07:09:37;;;;;;;6.70;5.28;;;32.60;84.20;;;;;;5036571;28;20213;-81
2022/06/23 07:12:23;;;;;;;10.55;5.90;;;32.60;82.40;;;;;;5038394;28;20678;-82
2022/06/23 07:15:20;;;;;;;7.55;5.10;;;32.70;82.10;;;;;;5038719;28;20205;-83
2022/06/23 07:17:52;;;;;;;7.47;5.20;;;32.60;81.70;;;;;;5038099;28;20223;-81
2022/06/23 07:20:38;;;;;;;9.27;5.25;;;32.60;81.60;;;;;;5036853;28;20263;-82
2022/06/23 07:23:21;;;;;;;10.32;5.18;;;32.60;81.80;;;;;;5036143;28;20723;-79
2022/06/23 07:25:54;;;;;;;7.55;5.10;;;32.70;81.70;;;;;;5035864;28;20283;-80
2022/06/23 07:28:43;;;;;;;8.00;5.10;;;33.00;80.80;;;;;;5036544;28;20734;-81
2022/06/23 07:31:16;;;;;;;7.57;4.88;;;33.20;79.70;;;;;;5034961;28;20556;-81
2022/06/23 07:33:46;;;;;;;8.02;5.22;;;33.30;79.00;;;;;;5038054;28;20599;-81
2022/06/23 07:36:24;;;;;;;6.47;4.57;;;33.40;78.10;;;;;;5036665;28;20624;-80
2022/06/23 07:38:59;;;;;;;8.57;5.13;;;33.70;78.10;;;;;;5036239;28;20213;-80
2022/06/23 07:41:48;;;;;;;8.40;5.40;;;33.70;77.70;;;;;;5036493;28;20200;-81
2022/06/23 07:44:20;;;;;;;11.73;5.00;;;33.80;76.60;;;;;;5037943;28;20209;-79
2022/06/23 07:46:48;;;;;;;7.18;5.10;;;33.70;77.10;;;;;;5039228;28;20250;-82
2022/06/23 07:49:20;;;;;;;5.85;4.88;;;33.60;77.00;;;;;;5035030;28;20268;-82
2022/06/23 07:51:48;;;;;;;10.90;5.03;;;33.50;77.30;;;;;;5037668;28;20603;-81
2022/06/23 07:54:18;;;;;;;8.30;5.47;;;33.40;76.60;;;;;;5036035;28;20233;-82
2022/06/23 07:56:47;;;;;;;9.70;5.22;;;33.40;76.60;;;;;;5038426;28;20695;-82
2022/06/23 07:59:19;;;;;;;7.53;4.68;;;33.30;76.20;;;;;;5036282;28;20206;-82
2022/06/23 08:01:48;;;;;;;7.50;5.05;;;33.30;76.40;;;;;;5039369;28;20202;-81
2022/06/23 08:04:53;;;;;;;6.30;4.72;;;33.20;76.20;;;;;;5041105;28;20236;-81
2022/06/23 08:07:20;;;;;;;9.00;4.75;;;33.20;75.90;;;;;;5036951;28;20307;-80
2022/06/23 08:09:51;;;;;;;6.93;4.70;;;33.20;76.60;;;;;;5039777;28;20688;-82
2022/06/23 08:18:56;;;;;;;5.88;4.50;;;33.30;75.30;;;;;;5038469;28;20217;-82
2022/06/23 08:21:30;;;;;;;6.82;4.35;;;32.70;77.20;;;;;;5038994;28;20683;-81
2022/06/23 08:24:03;;;;;;;8.18;4.88;;;32.50;77.70;;;;;;5037629;28;20219;-84
2022/06/23 08:26:31;;;;;;;8.45;5.32;;;32.50;77.70;;;;;;5038373;28;20209;-83
2022/06/23 08:29:03;;;;;;;8.38;4.82;;;32.60;77.00;;;;;;5036435;28;20256;-83
2022/06/23 08:31:31;;;;;;;9.73;5.13;;;32.60;77.10;;;;;;5037650;28;20216;-83
2022/06/23 08:34:18;;;;;;;7.40;4.65;;;32.70;77.10;;;;;;5035701;28;20244;-82
2022/06/23 08:36:48;;;;;;;7.75;4.80;;;32.70;77.40;;;;;;5036781;28;20484;-84
2022/06/23 08:39:38;;;;;;;13.07;5.95;;;32.90;77.30;;;;;;5037898;28;20243;-83
2022/06/23 08:42:17;;;;;;;7.22;4.70;;;33.00;76.70;;;;;;5034430;28;20205;-85
2022/06/23 08:45:05;;;;;;;6.72;4.80;;;33.20;76.30;;;;;;5036785;28;20209;-83
2022/06/23 08:47:50;;;;;;;6.47;5.35;;;33.10;76.90;;;;;;5036924;28;20205;-82
2022/06/23 08:50:32;;;;;;;7.57;4.85;;;33.10;77.30;;;;;;5039328;28;20249;-83
2022/06/23 08:53:25;;;;;;;5.53;4.95;;;33.10;77.20;;;;;;5041113;28;20233;-83
2022/06/23 08:56:09;;;;;;;11.63;5.43;;;33.20;77.30;;;;;;5039392;28;20281;-84
2022/06/23 08:58:44;;;;;;;7.40;5.43;;;33.40;77.00;;;;;;5045852;28;20649;-83
2022/06/23 09:01:19;;;;;;;8.10;5.63;;;33.40;76.60;;;;;;5042636;28;20211;-84
2022/06/23 09:04:23;;;;;;;9.43;5.78;;;33.30;77.20;;;;;;5041732;28;20664;-84
2022/06/23 09:06:58;;;;;;;7.45;5.18;;;33.50;76.50;;;;;;5039071;28;20219;-83
2022/06/23 09:09:32;;;;;;;9.60;5.47;;;33.50;77.20;;;;;;5038502;28;20204;-84
2022/06/23 09:12:15;;;;;;;7.68;5.00;;;33.50;76.90;;;;;;5040644;28;20291;-84
2022/06/23 09:15:08;;;;;;;9.23;5.20;;;33.60;77.00;;;;;;5040313;28;20248;-84
2022/06/23 09:17:57;;;;;;;6.18;5.57;;;33.70;77.70;;;;;;5042070;28;20255;-85
2022/06/23 09:20:33;;;;;;;5.78;5.15;;;33.70;77.10;;;;;;5038258;28;20592;-85
2022/06/23 09:23:20;;;;;;;8.40;5.50;;;33.80;77.50;;;;;;5040815;28;20201;-84
2022/06/23 09:25:56;;;;;;;8.02;5.20;;;33.90;77.70;;;;;;5074261;28;20298;-84
2022/06/23 09:28:50;;;;;;;6.55;5.85;;;34.00;77.50;;;;;;5038131;28;20265;-85
2022/06/23 09:31:37;;;;;;;8.68;5.70;;;33.90;76.90;;;;;;5043437;28;20206;-86
2022/06/23 09:34:14;;;;;;;24.83;7.30;;;33.70;77.40;;;;;;5037744;28;20248;-85
2022/06/23 09:36:41;;;;;;;22.48;6.18;;;33.60;77.40;;;;;;5077901;28;20215;-85
2022/06/23 09:39:17;;;;;;;12.07;6.15;;;33.40;78.00;;;;;;5045750;28;20241;-84
2022/06/23 09:42:11;;;;;;;9.40;5.78;;;33.40;78.60;;;;;;5039829;28;20197;-86
2022/06/23 09:45:01;;;;;;;9.35;5.65;;;33.30;78.80;;;;;;5040207;28;20220;-86
2022/06/23 09:47:53;;;;;;;8.90;5.70;;;33.10;79.60;;;;;;5039083;28;20293;-86
2022/06/23 09:50:27;;;;;;;10.40;6.45;;;32.90;80.20;;;;;;5037529;28;20229;-85
2022/06/23 09:53:32;;;;;;;8.40;5.88;;;32.90;80.40;;;;;;5038421;28;20209;-85
2022/06/23 09:56:05;;;;;;;7.88;5.47;;;32.90;80.80;;;;;;5034190;28;20217;-85
2022/06/23 09:59:09;;;;;;;9.23;5.80;;;33.10;80.60;;;;;;5044472;28;20216;-85
2022/06/23 10:01:42;;;;;;;13.40;5.90;;;33.10;80.50;;;;;;5049641;28;20319;-86
2022/06/23 10:04:09;;;;;;;13.68;6.13;;;33.10;80.90;;;;;;5045483;28;20646;-85
2022/06/23 10:06:41;;;;;;;8.32;6.10;;;33.00;81.00;;;;;;5042768;28;20217;-83
2022/06/23 10:09:27;;;;;;;14.15;6.28;;;32.90;81.40;;;;;;5047625;28;20209;-84
2022/06/23 10:12:16;;;;;;;8.80;6.22;;;32.80;81.70;;;;;;5077321;28;20216;-84
2022/06/23 10:15:05;;;;;;;10.85;6.82;;;32.90;82.20;;;;;;5045473;28;20229;-84
2022/06/23 10:18:00;;;;;;;9.63;5.90;;;33.10;81.80;;;;;;5050305;28;20313;-83
2022/06/23 10:20:51;;;;;;;12.48;7.22;;;33.40;81.30;;;;;;5050396;28;20225;-85
2022/06/23 10:23:44;;;;;;;11.88;6.45;;;33.40;80.70;;;;;;5043823;28;20249;-83
2022/06/23 10:26:18;;;;;;;10.90;5.97;;;33.40;81.10;;;;;;5062208;28;20277;-85
2022/06/23 10:28:46;;;;;;;9.63;5.88;;;33.20;80.90;;;;;;5043450;28;20226;-84
2022/06/23 10:31:38;;;;;;;12.85;5.75;;;33.20;81.20;;;;;;5043918;28;20216;-83
2022/06/23 10:34:40;;;;;;;7.18;5.63;;;33.30;81.60;;;;;;5041965;28;20233;-83
2022/06/23 10:37:16;;;;;;;11.07;5.75;;;33.30;80.80;;;;;;5037694;28;20626;-83
2022/06/23 10:40:12;;;;;;;10.27;5.70;;;33.40;81.50;;;;;;5040249;28;20213;-83
2022/06/23 10:43:36;;;;;;;11.52;5.90;;;33.50;81.50;;;;;;5042396;28;20267;-82
2022/06/23 10:46:20;;;;;;;10.65;6.30;;;33.50;80.40;;;;;;5041429;28;20512;-83
2022/06/23 10:48:50;;;;;;;7.85;5.70;;;33.50;80.40;;;;;;5043743;28;20248;-81
2022/06/23 10:51:36;;;;;;;6.63;5.18;;;33.40;80.30;;;;;;5041844;28;20210;-82
2022/06/23 10:54:31;;;;;;;11.90;5.82;;;33.40;80.40;;;;;;5042150;28;20255;-83
2022/06/23 10:57:27;;;;;;;8.50;5.47;;;33.40;80.20;;;;;;5038337;28;20260;-82
2022/06/23 11:00:07;;;;;;;5.80;5.05;;;33.40;80.10;;;;;;5043119;28;20210;-82
2022/06/23 11:02:49;;;;;;;9.73;5.70;;;33.20;80.80;;;;;;5038785;28;20615;-83
2022/06/23 11:05:19;;;;;;;10.10;5.53;;;33.20;80.10;;;;;;5038557;28;20787;-81
2022/06/23 11:08:20;;;;;;;6.65;5.03;;;33.20;80.40;;;;;;5042158;28;20207;-81
2022/06/23 11:11:24;;;;;;;9.85;6.40;;;33.20;81.10;;;;;;5037002;28;20201;-83
2022/06/23 11:14:17;;;;;;;10.82;6.05;;;33.10;80.30;;;;;;5041547;28;20228;-82
2022/06/23 11:17:08;;;;;;;7.03;5.18;;;33.10;80.40;;;;;;5041295;28;20210;-83
2022/06/23 11:19:45;;;;;;;11.65;7.00;;;33.30;80.80;;;;;;5036299;28;20254;-81
2022/06/23 11:22:39;;;;;;;8.73;6.28;;;33.30;80.80;;;;;;5037259;28;20300;-84
2022/06/23 11:25:30;;;;;;;12.85;6.07;;;33.30;80.30;;;;;;5070276;28;20654;-83
2022/06/23 11:28:42;;;;;;;9.13;5.57;;;33.20;80.90;;;;;;5035922;28;20209;-82
2022/06/23 11:31:28;;;;;;;8.05;5.25;;;33.20;80.20;;;;;;5035976;28;20643;-82
2022/06/23 11:34:25;;;;;;;8.20;6.13;;;33.30;80.50;;;;;;5036897;28;20233;-83
2022/06/23 11:37:20;;;;;;;10.15;6.40;;;33.40;80.00;;;;;;5052878;28;20285;-82
2022/06/23 11:40:20;;;;;;;10.27;5.82;;;33.30;80.20;;;;;;5039230;28;20209;-82
2022/06/23 11:43:01;;;;;;;10.75;5.95;;;33.30;80.20;;;;;;5035983;28;20202;-83
2022/06/23 11:45:49;;;;;;;11.70;6.18;;;33.30;80.70;;;;;;5037199;28;20217;-82
2022/06/23 11:48:35;;;;;;;9.30;5.53;;;33.30;80.80;;;;;;5038284;28;20300;-81
2022/06/23 11:51:12;;;;;;;8.60;5.47;;;33.30;80.40;;;;;;5071214;28;20220;-83
2022/06/23 11:53:54;;;;;;;10.45;5.85;;;33.20;80.50;;;;;;5039458;28;20224;-82
2022/06/23 11:56:45;;;;;;;9.25;5.78;;;33.30;79.70;;;;;;5036858;28;20275;-82
2022/06/23 11:59:17;;;;;;;9.70;6.03;;;33.40;79.80;;;;;;5037414;28;20216;-82
2022/06/23 12:01:44;;;;;;;9.35;5.70;;;33.40;79.40;;;;;;5041334;28;20198;-82
2022/06/23 12:04:35;;;;;;;10.80;5.97;;;33.40;80.20;;;;;;5034831;28;20768;-78
2022/06/23 12:07:20;;;;;;;8.68;5.82;;;33.50;80.10;;;;;;5028032;28;20210;-84
2022/06/23 12:10:12;;;;;;;10.93;5.75;;;33.50;80.00;;;;;;5036120;28;20666;-82
2022/06/23 12:12:44;;;;;;;8.85;5.30;;;33.60;79.50;;;;;;5028850;28;20214;-82
2022/06/23 12:15:15;;;;;;;8.82;5.57;;;33.80;79.20;;;;;;5028167;28;20237;-82
2022/06/23 12:17:53;;;;;;;9.52;5.88;;;33.80;78.80;;;;;;5028206;28;20210;-83
2022/06/23 12:20:55;;;;;;;12.55;5.97;;;33.90;78.60;;;;;;5037207;28;20213;-82
2022/06/23 12:23:30;;;;;;;8.50;5.18;;;33.90;78.90;;;;;;5042133;28;20213;-83
2022/06/23 12:26:20;;;;;;;9.88;5.03;;;33.90;78.00;;;;;;5040954;28;20211;-81
2022/06/23 12:29:02;;;;;;;4.88;4.35;;;34.10;78.00;;;;;;5043603;28;20262;-83
2022/06/23 12:31:50;;;;;;;7.38;4.60;;;34.20;76.90;;;;;;5042690;28;20220;-83
2022/06/23 12:34:38;;;;;;;7.38;5.00;;;34.30;75.60;;;;;;5057646;28;20784;-83
2022/06/23 12:37:25;;;;;;;7.35;5.18;;;34.30;75.60;;;;;;5039721;28;20251;-83
2022/06/23 12:40:09;;;;;;;6.20;3.90;;;34.30;75.10;;;;;;5039593;28;20209;-82
2022/06/23 12:42:41;;;;;;;7.47;4.15;;;34.30;74.70;;;;;;5039678;28;20220;-84
2022/06/23 12:45:19;;;;;;;7.53;4.13;;;34.40;74.60;;;;;;5043552;28;20205;-83
2022/06/23 12:48:40;;;;;;;6.30;3.63;;;34.40;73.80;;;;;;5031873;28;20209;-84
2022/06/23 12:51:32;;;;;;;5.97;4.32;;;34.50;72.70;;;;;;5027293;28;20238;-83
2022/06/23 12:53:59;;;;;;;5.93;4.43;;;34.70;72.20;;;;;;5033219;28;20225;-82
2022/06/23 12:56:54;;;;;;;8.80;4.10;;;34.70;71.80;;;;;;5043957;28;20717;-82
2022/06/23 12:59:50;;;;;;;5.82;3.50;;;34.70;71.20;;;;;;5042420;28;20614;-81
2022/06/23 13:02:36;;;;;;;6.03;4.50;;;34.70;71.70;;;;;;5039467;28;20210;-82
2022/06/23 13:05:22;;;;;;;9.18;3.42;;;34.80;71.40;;;;;;5041811;28;20236;-82
2022/06/23 13:08:04;;;;;;;4.93;3.63;;;34.80;70.80;;;;;;5038786;28;20232;-82
2022/06/23 13:10:46;;;;;;;7.97;4.10;;;34.80;70.70;;;;;;5038353;28;20210;-81
2022/06/23 13:13:21;;;;;;;8.65;4.05;;;35.00;70.90;;;;;;5042222;28;20205;-82
2022/06/23 13:15:52;;;;;;;5.80;3.70;;;35.10;70.60;;;;;;5039236;28;20236;-81
2022/06/23 13:18:41;;;;;;;8.50;4.00;;;35.10;70.90;;;;;;5040374;28;20624;-81
2022/06/23 13:21:28;;;;;;;8.32;4.28;;;35.20;71.00;;;;;;5039297;28;20267;-82
2022/06/23 13:24:03;;;;;;;9.85;3.67;;;35.20;70.40;;;;;;5039563;28;20206;-82
2022/06/23 13:26:39;;;;;;;6.25;4.05;;;35.30;70.40;;;;;;5038961;28;20205;-81
2022/06/23 13:29:25;;;;;;;7.25;4.07;;;35.30;69.90;;;;;;5040544;28;20646;-81
2022/06/23 13:32:05;;;;;;;6.53;3.60;;;35.30;69.50;;;;;;5030438;28;20259;-80
2022/06/23 13:34:40;;;;;;;10.82;4.18;;;35.20;69.50;;;;;;5030325;28;20241;-81
2022/06/23 13:37:17;;;;;;;8.35;3.65;;;35.10;69.60;;;;;;5030655;28;20267;-82
2022/06/23 13:40:14;;;;;;;8.18;3.60;;;35.10;70.40;;;;;;5031366;28;20296;-82
2022/06/23 13:43:02;;;;;;;6.32;3.65;;;35.20;70.30;;;;;;5034872;28;20753;-81
2022/06/23 13:45:41;;;;;;;7.10;4.32;;;35.20;70.20;;;;;;5041864;28;20213;-81
2022/06/23 13:48:20;;;;;;;7.22;4.38;;;35.30;70.00;;;;;;5039965;28;20257;-82
2022/06/23 13:51:09;;;;;;;11.20;4.63;;;35.40;69.60;;;;;;5038606;28;20224;-85
2022/06/23 13:53:47;;;;;;;10.15;3.90;;;35.30;69.30;;;;;;5080355;28;20259;-82
2022/06/23 13:56:34;;;;;;;5.70;4.00;;;35.10;69.60;;;;;;5044079;28;20212;-81
2022/06/23 13:59:31;;;;;;;8.90;3.78;;;35.00;69.10;;;;;;5041360;28;20237;-81
2022/06/23 14:02:04;;;;;;;6.93;3.72;;;34.90;70.00;;;;;;5043609;28;20255;-80
2022/06/23 14:04:36;;;;;;;6.85;3.83;;;34.80;70.20;;;;;;5038607;28;20288;-81